sensor_id;sensor_type;location;lat;lon;timestamp;P1;durP1;ratioP1;P2;durP2;ratioP2
63551;SDS011;49698;48.072;7.800;2024-02-04T00:01:47;91.13;;;63.28;;
63551;SDS011;49698;48.072;7.800;2024-02-04T00:04:16;86.70;;;58.22;;
63551;SDS011;49698;48.072;7.800;2024-02-04T00:06:44;46.10;;;41.00;;
63551;SDS011;49698;48.072;7.800;2024-02-04T00:09:12;62.95;;;48.30;;
63551;SDS011;49698;48.072;7.800;2024-02-04T00:11:41;89.05;;;59.72;;
63551;SDS011;49698;48.072;7.800;2024-02-04T00:14:09;35.95;;;33.25;;
63551;SDS011;49698;48.072;7.800;2024-02-04T00:16:37;23.40;;;21.77;;
63551;SDS011;49698;48.072;7.800;2024-02-04T00:19:06;33.38;;;29.98;;
63551;SDS011;49698;48.072;7.800;2024-02-04T00:21:35;87.05;;;58.55;;
63551;SDS011;49698;48.072;7.800;2024-02-04T00:24:03;87.53;;;57.22;;
63551;SDS011;49698;48.072;7.800;2024-02-04T00:26:32;94.55;;;63.95;;
63551;SDS011;49698;48.072;7.800;2024-02-04T00:29:01;87.75;;;64.70;;
63551;SDS011;49698;48.072;7.800;2024-02-04T00:31:29;79.15;;;62.05;;
63551;SDS011;49698;48.072;7.800;2024-02-04T00:36:25;30.60;;;29.50;;
63551;SDS011;49698;48.072;7.800;2024-02-04T00:38:56;28.40;;;27.40;;
63551;SDS011;49698;48.072;7.800;2024-02-04T01:33:25;19.80;;;19.20;;
63551;SDS011;49698;48.072;7.800;2024-02-04T01:35:54;21.30;;;20.60;;
63551;SDS011;49698;48.072;7.800;2024-02-04T01:38:23;21.80;;;21.10;;
63551;SDS011;49698;48.072;7.800;2024-02-04T01:40:51;19.83;;;19.20;;
63551;SDS011;49698;48.072;7.800;2024-02-04T01:43:20;20.90;;;20.20;;
63551;SDS011;49698;48.072;7.800;2024-02-04T01:45:49;22.10;;;21.40;;
63551;SDS011;49698;48.072;7.800;2024-02-04T02:21:00;20.60;;;19.90;;
63551;SDS011;49698;48.072;7.800;2024-02-04T02:23:40;38.20;;;36.25;;
63551;SDS011;49698;48.072;7.800;2024-02-04T02:26:17;45.70;;;41.85;;
63551;SDS011;49698;48.072;7.800;2024-02-04T02:28:46;55.15;;;47.40;;
63551;SDS011;49698;48.072;7.800;2024-02-04T02:31:14;16.60;;;16.10;;
63551;SDS011;49698;48.072;7.800;2024-02-04T02:33:44;76.80;;;69.20;;
63551;SDS011;49698;48.072;7.800;2024-02-04T02:36:13;105.63;;;70.50;;
63551;SDS011;49698;48.072;7.800;2024-02-04T02:38:51;105.32;;;67.47;;
63551;SDS011;49698;48.072;7.800;2024-02-04T02:41:33;89.97;;;64.88;;
63551;SDS011;49698;48.072;7.800;2024-02-04T02:46:32;26.33;;;25.38;;
63551;SDS011;49698;48.072;7.800;2024-02-04T02:49:01;22.23;;;21.52;;
63551;SDS011;49698;48.072;7.800;2024-02-04T02:51:29;19.08;;;18.48;;
63551;SDS011;49698;48.072;7.800;2024-02-04T02:53:57;21.17;;;20.30;;
63551;SDS011;49698;48.072;7.800;2024-02-04T02:56:25;27.58;;;26.15;;
63551;SDS011;49698;48.072;7.800;2024-02-04T02:58:55;24.95;;;22.95;;
63551;SDS011;49698;48.072;7.800;2024-02-04T03:01:24;19.83;;;19.20;;
63551;SDS011;49698;48.072;7.800;2024-02-04T03:03:52;18.85;;;18.25;;
63551;SDS011;49698;48.072;7.800;2024-02-04T03:06:20;30.58;;;27.98;;
63551;SDS011;49698;48.072;7.800;2024-02-04T03:08:48;76.28;;;61.05;;
63551;SDS011;49698;48.072;7.800;2024-02-04T03:11:16;25.65;;;23.77;;
63551;SDS011;49698;48.072;7.800;2024-02-04T03:13:44;17.27;;;16.58;;
63551;SDS011;49698;48.072;7.800;2024-02-04T03:16:14;19.50;;;18.80;;
63551;SDS011;49698;48.072;7.800;2024-02-04T03:18:42;19.35;;;18.65;;
63551;SDS011;49698;48.072;7.800;2024-02-04T03:21:11;17.58;;;16.98;;
63551;SDS011;49698;48.072;7.800;2024-02-04T03:23:40;23.05;;;22.25;;
63551;SDS011;49698;48.072;7.800;2024-02-04T03:26:16;16.15;;;15.65;;
63551;SDS011;49698;48.072;7.800;2024-02-04T03:28:46;15.55;;;15.05;;
63551;SDS011;49698;48.072;7.800;2024-02-04T03:31:20;15.75;;;15.25;;
63551;SDS011;49698;48.072;7.800;2024-02-04T03:33:49;17.85;;;17.25;;
63551;SDS011;49698;48.072;7.800;2024-02-04T03:36:18;17.35;;;16.58;;
63551;SDS011;49698;48.072;7.800;2024-02-04T03:53:43;20.80;;;20.10;;
63551;SDS011;49698;48.072;7.800;2024-02-04T03:56:11;18.80;;;18.20;;
63551;SDS011;49698;48.072;7.800;2024-02-04T03:58:39;18.93;;;18.33;;
63551;SDS011;49698;48.072;7.800;2024-02-04T04:06:08;103.15;;;61.72;;
63551;SDS011;49698;48.072;7.800;2024-02-04T04:08:36;95.88;;;61.83;;
63551;SDS011;49698;48.072;7.800;2024-02-04T04:11:05;92.43;;;59.20;;
63551;SDS011;49698;48.072;7.800;2024-02-04T04:13:35;85.00;;;59.10;;
63551;SDS011;49698;48.072;7.800;2024-02-04T04:16:03;26.52;;;24.17;;
63551;SDS011;49698;48.072;7.800;2024-02-04T04:18:32;35.08;;;31.73;;
63551;SDS011;49698;48.072;7.800;2024-02-04T04:21:00;63.53;;;53.58;;
63551;SDS011;49698;48.072;7.800;2024-02-04T04:23:30;72.40;;;56.58;;
63551;SDS011;49698;48.072;7.800;2024-02-04T04:25:58;36.40;;;32.85;;
63551;SDS011;49698;48.072;7.800;2024-02-04T04:28:27;29.90;;;28.08;;
63551;SDS011;49698;48.072;7.800;2024-02-04T04:30:55;18.70;;;18.10;;
63551;SDS011;49698;48.072;7.800;2024-02-04T04:33:23;22.67;;;21.58;;
63551;SDS011;49698;48.072;7.800;2024-02-04T04:35:51;93.22;;;72.03;;
63551;SDS011;49698;48.072;7.800;2024-02-04T04:38:19;82.60;;;63.40;;
63551;SDS011;49698;48.072;7.800;2024-02-04T04:40:49;62.70;;;52.60;;
63551;SDS011;49698;48.072;7.800;2024-02-04T04:45:45;23.60;;;22.80;;
63551;SDS011;49698;48.072;7.800;2024-02-04T04:55:36;27.03;;;26.10;;
63551;SDS011;49698;48.072;7.800;2024-02-04T04:58:06;15.95;;;15.45;;
63551;SDS011;49698;48.072;7.800;2024-02-04T05:00:34;17.55;;;16.95;;
63551;SDS011;49698;48.072;7.800;2024-02-04T05:03:04;16.42;;;15.93;;
63551;SDS011;49698;48.072;7.800;2024-02-04T05:05:32;15.00;;;14.50;;
63551;SDS011;49698;48.072;7.800;2024-02-04T05:08:00;16.88;;;16.38;;
63551;SDS011;49698;48.072;7.800;2024-02-04T05:10:28;19.08;;;18.48;;
63551;SDS011;49698;48.072;7.800;2024-02-04T05:12:57;16.17;;;15.68;;
63551;SDS011;49698;48.072;7.800;2024-02-04T05:15:27;16.20;;;15.70;;
63551;SDS011;49698;48.072;7.800;2024-02-04T05:17:56;16.15;;;15.65;;
63551;SDS011;49698;48.072;7.800;2024-02-04T05:20:24;13.77;;;13.38;;
63551;SDS011;49698;48.072;7.800;2024-02-04T05:22:53;15.65;;;15.15;;
63551;SDS011;49698;48.072;7.800;2024-02-04T05:25:21;16.55;;;16.05;;
63551;SDS011;49698;48.072;7.800;2024-02-04T05:27:49;18.08;;;17.48;;
63551;SDS011;49698;48.072;7.800;2024-02-04T05:30:17;15.02;;;14.52;;
63551;SDS011;49698;48.072;7.800;2024-02-04T05:32:47;15.35;;;14.85;;
63551;SDS011;49698;48.072;7.800;2024-02-04T05:35:15;15.10;;;14.60;;
63551;SDS011;49698;48.072;7.800;2024-02-04T05:37:43;15.00;;;14.50;;
63551;SDS011;49698;48.072;7.800;2024-02-04T05:40:11;12.13;;;11.73;;
63551;SDS011;49698;48.072;7.800;2024-02-04T05:42:42;14.55;;;14.05;;
63551;SDS011;49698;48.072;7.800;2024-02-04T05:45:10;17.98;;;17.38;;
63551;SDS011;49698;48.072;7.800;2024-02-04T05:47:38;19.00;;;18.20;;
63551;SDS011;49698;48.072;7.800;2024-02-04T05:50:08;21.50;;;20.02;;
63551;SDS011;49698;48.072;7.800;2024-02-04T05:52:37;22.05;;;20.75;;
63551;SDS011;49698;48.072;7.800;2024-02-04T05:55:05;20.73;;;20.02;;
63551;SDS011;49698;48.072;7.800;2024-02-04T05:57:34;20.77;;;20.08;;
63551;SDS011;49698;48.072;7.800;2024-02-04T06:00:02;20.85;;;20.15;;
63551;SDS011;49698;48.072;7.800;2024-02-04T06:02:34;22.65;;;21.85;;
63551;SDS011;49698;48.072;7.800;2024-02-04T06:07:32;23.13;;;22.37;;
63551;SDS011;49698;48.072;7.800;2024-02-04T06:10:00;17.83;;;17.23;;
63551;SDS011;49698;48.072;7.800;2024-02-04T06:12:30;19.25;;;18.45;;
63551;SDS011;49698;48.072;7.800;2024-02-04T06:14:58;16.40;;;15.90;;
63551;SDS011;49698;48.072;7.800;2024-02-04T06:17:26;20.75;;;20.05;;
63551;SDS011;49698;48.072;7.800;2024-02-04T06:19:54;34.63;;;31.77;;
63551;SDS011;49698;48.072;7.800;2024-02-04T06:22:23;16.65;;;15.93;;
63551;SDS011;49698;48.072;7.800;2024-02-04T06:24:53;16.88;;;16.33;;
63551;SDS011;49698;48.072;7.800;2024-02-04T06:27:21;20.30;;;19.60;;
63551;SDS011;49698;48.072;7.800;2024-02-04T06:29:49;18.25;;;17.65;;
63551;SDS011;49698;48.072;7.800;2024-02-04T06:32:17;18.38;;;17.77;;
63551;SDS011;49698;48.072;7.800;2024-02-04T06:34:47;18.80;;;18.20;;
63551;SDS011;49698;48.072;7.800;2024-02-04T06:37:15;20.20;;;19.50;;
63551;SDS011;49698;48.072;7.800;2024-02-04T06:39:43;20.23;;;19.52;;
63551;SDS011;49698;48.072;7.800;2024-02-04T06:42:12;23.60;;;22.80;;
63551;SDS011;49698;48.072;7.800;2024-02-04T06:44:42;21.60;;;20.90;;
63551;SDS011;49698;48.072;7.800;2024-02-04T06:47:10;20.40;;;19.70;;
63551;SDS011;49698;48.072;7.800;2024-02-04T06:49:43;20.85;;;20.15;;
63551;SDS011;49698;48.072;7.800;2024-02-04T06:52:11;19.73;;;19.13;;
63551;SDS011;49698;48.072;7.800;2024-02-04T06:54:39;20.30;;;19.60;;
63551;SDS011;49698;48.072;7.800;2024-02-04T06:57:07;21.57;;;20.87;;
63551;SDS011;49698;48.072;7.800;2024-02-04T06:59:37;19.55;;;18.95;;
63551;SDS011;49698;48.072;7.800;2024-02-04T07:02:05;18.30;;;17.70;;
63551;SDS011;49698;48.072;7.800;2024-02-04T07:04:33;15.40;;;14.90;;
63551;SDS011;49698;48.072;7.800;2024-02-04T07:07:01;14.60;;;14.10;;
63551;SDS011;49698;48.072;7.800;2024-02-04T07:09:29;15.02;;;14.52;;
63551;SDS011;49698;48.072;7.800;2024-02-04T07:11:58;15.40;;;14.90;;
63551;SDS011;49698;48.072;7.800;2024-02-04T07:14:26;17.30;;;16.70;;
63551;SDS011;49698;48.072;7.800;2024-02-04T07:16:55;15.07;;;14.57;;
63551;SDS011;49698;48.072;7.800;2024-02-04T07:19:23;15.75;;;15.25;;
63551;SDS011;49698;48.072;7.800;2024-02-04T07:21:51;16.00;;;15.50;;
63551;SDS011;49698;48.072;7.800;2024-02-04T07:24:19;13.40;;;13.00;;
63551;SDS011;49698;48.072;7.800;2024-02-04T07:26:47;14.10;;;13.65;;
63551;SDS011;49698;48.072;7.800;2024-02-04T07:29:15;14.55;;;14.05;;
63551;SDS011;49698;48.072;7.800;2024-02-04T07:31:43;14.82;;;14.32;;
63551;SDS011;49698;48.072;7.800;2024-02-04T07:34:13;16.38;;;15.88;;
63551;SDS011;49698;48.072;7.800;2024-02-04T07:36:41;14.80;;;14.30;;
63551;SDS011;49698;48.072;7.800;2024-02-04T07:39:10;14.27;;;13.82;;
63551;SDS011;49698;48.072;7.800;2024-02-04T07:41:38;15.90;;;15.40;;
63551;SDS011;49698;48.072;7.800;2024-02-04T07:44:07;14.43;;;13.93;;
63551;SDS011;49698;48.072;7.800;2024-02-04T07:46:35;16.33;;;15.82;;
63551;SDS011;49698;48.072;7.800;2024-02-04T07:49:03;14.40;;;13.93;;
63551;SDS011;49698;48.072;7.800;2024-02-04T07:51:33;15.50;;;15.00;;
63551;SDS011;49698;48.072;7.800;2024-02-04T07:54:02;13.80;;;13.40;;
63551;SDS011;49698;48.072;7.800;2024-02-04T07:56:30;17.13;;;16.55;;
63551;SDS011;49698;48.072;7.800;2024-02-04T07:58:58;15.95;;;15.45;;
63551;SDS011;49698;48.072;7.800;2024-02-04T08:01:26;14.32;;;13.82;;
63551;SDS011;49698;48.072;7.800;2024-02-04T08:03:54;84.10;;;57.78;;
63551;SDS011;49698;48.072;7.800;2024-02-04T08:06:22;59.60;;;43.95;;
63551;SDS011;49698;48.072;7.800;2024-02-04T08:08:51;72.20;;;50.47;;
63551;SDS011;49698;48.072;7.800;2024-02-04T08:11:20;88.43;;;62.05;;
63551;SDS011;49698;48.072;7.800;2024-02-04T08:13:48;24.40;;;22.40;;
63551;SDS011;49698;48.072;7.800;2024-02-04T08:16:17;86.47;;;59.33;;
63551;SDS011;49698;48.072;7.800;2024-02-04T08:18:45;48.67;;;38.75;;
63551;SDS011;49698;48.072;7.800;2024-02-04T08:21:13;29.08;;;26.40;;
63551;SDS011;49698;48.072;7.800;2024-02-04T08:23:42;59.08;;;47.88;;
63551;SDS011;49698;48.072;7.800;2024-02-04T08:26:12;12.80;;;12.40;;
63551;SDS011;49698;48.072;7.800;2024-02-04T08:28:40;15.15;;;14.65;;
63551;SDS011;49698;48.072;7.800;2024-02-04T08:31:08;20.38;;;19.00;;
63551;SDS011;49698;48.072;7.800;2024-02-04T08:33:37;30.30;;;27.27;;
63551;SDS011;49698;48.072;7.800;2024-02-04T08:36:05;15.43;;;14.93;;
63551;SDS011;49698;48.072;7.800;2024-02-04T08:38:36;13.23;;;12.77;;
63551;SDS011;49698;48.072;7.800;2024-02-04T08:41:05;19.90;;;18.80;;
63551;SDS011;49698;48.072;7.800;2024-02-04T08:43:34;88.90;;;61.60;;
63551;SDS011;49698;48.072;7.800;2024-02-04T08:46:03;89.72;;;71.82;;
63551;SDS011;49698;48.072;7.800;2024-02-04T08:48:33;75.88;;;59.35;;
63551;SDS011;49698;48.072;7.800;2024-02-04T08:51:01;22.88;;;21.30;;
63551;SDS011;49698;48.072;7.800;2024-02-04T08:53:29;88.70;;;68.63;;
63551;SDS011;49698;48.072;7.800;2024-02-04T08:55:58;15.52;;;14.93;;
63551;SDS011;49698;48.072;7.800;2024-02-04T08:58:26;91.32;;;70.72;;
63551;SDS011;49698;48.072;7.800;2024-02-04T09:00:56;90.15;;;69.18;;
63551;SDS011;49698;48.072;7.800;2024-02-04T09:03:24;91.00;;;71.30;;
63551;SDS011;49698;48.072;7.800;2024-02-04T09:05:59;23.83;;;21.88;;
63551;SDS011;49698;48.072;7.800;2024-02-04T09:08:27;88.47;;;69.22;;
63551;SDS011;49698;48.072;7.800;2024-02-04T09:10:55;87.15;;;68.03;;
63551;SDS011;49698;48.072;7.800;2024-02-04T09:13:24;83.93;;;62.65;;
63551;SDS011;49698;48.072;7.800;2024-02-04T09:15:52;89.60;;;69.85;;
63551;SDS011;49698;48.072;7.800;2024-02-04T09:18:21;91.15;;;74.60;;
63551;SDS011;49698;48.072;7.800;2024-02-04T09:20:49;90.18;;;71.20;;
63551;SDS011;49698;48.072;7.800;2024-02-04T09:23:18;89.78;;;69.07;;
63551;SDS011;49698;48.072;7.800;2024-02-04T09:25:46;89.93;;;69.78;;
63551;SDS011;49698;48.072;7.800;2024-02-04T09:28:14;90.53;;;70.95;;
63551;SDS011;49698;48.072;7.800;2024-02-04T09:30:42;22.98;;;21.25;;
63551;SDS011;49698;48.072;7.800;2024-02-04T09:33:10;32.47;;;29.63;;
63551;SDS011;49698;48.072;7.800;2024-02-04T09:35:40;63.72;;;54.47;;
63551;SDS011;49698;48.072;7.800;2024-02-04T09:38:08;92.55;;;57.38;;
63551;SDS011;49698;48.072;7.800;2024-02-04T09:40:37;92.38;;;56.15;;
63551;SDS011;49698;48.072;7.800;2024-02-04T09:43:06;88.57;;;57.90;;
63551;SDS011;49698;48.072;7.800;2024-02-04T09:45:36;34.35;;;31.85;;
63551;SDS011;49698;48.072;7.800;2024-02-04T09:48:06;18.13;;;17.52;;
63551;SDS011;49698;48.072;7.800;2024-02-04T09:50:36;15.55;;;15.05;;
63551;SDS011;49698;48.072;7.800;2024-02-04T09:53:06;28.60;;;26.02;;
63551;SDS011;49698;48.072;7.800;2024-02-04T09:55:37;67.03;;;54.58;;
63551;SDS011;49698;48.072;7.800;2024-02-04T09:58:07;42.38;;;36.65;;
63551;SDS011;49698;48.072;7.800;2024-02-04T10:00:35;16.40;;;15.90;;
63551;SDS011;49698;48.072;7.800;2024-02-04T10:03:11;16.77;;;16.17;;
63551;SDS011;49698;48.072;7.800;2024-02-04T10:05:39;87.80;;;71.22;;
63551;SDS011;49698;48.072;7.800;2024-02-04T10:08:11;90.28;;;72.15;;
63551;SDS011;49698;48.072;7.800;2024-02-04T10:10:41;90.60;;;70.93;;
63551;SDS011;49698;48.072;7.800;2024-02-04T10:13:10;89.57;;;68.38;;
63551;SDS011;49698;48.072;7.800;2024-02-04T10:15:38;87.05;;;69.82;;
63551;SDS011;49698;48.072;7.800;2024-02-04T10:18:07;91.68;;;65.07;;
63551;SDS011;49698;48.072;7.800;2024-02-04T10:20:35;90.90;;;63.03;;
63551;SDS011;49698;48.072;7.800;2024-02-04T10:23:04;90.82;;;61.53;;
63551;SDS011;49698;48.072;7.800;2024-02-04T10:25:33;70.25;;;50.95;;
63551;SDS011;49698;48.072;7.800;2024-02-04T10:28:01;22.07;;;20.97;;
63551;SDS011;49698;48.072;7.800;2024-02-04T10:30:30;91.47;;;60.17;;
63551;SDS011;49698;48.072;7.800;2024-02-04T10:32:59;82.93;;;61.03;;
63551;SDS011;49698;48.072;7.800;2024-02-04T10:35:27;42.03;;;37.53;;
63551;SDS011;49698;48.072;7.800;2024-02-04T10:37:55;93.90;;;64.15;;
63551;SDS011;49698;48.072;7.800;2024-02-04T10:40:23;92.10;;;55.63;;
63551;SDS011;49698;48.072;7.800;2024-02-04T10:42:53;91.95;;;55.63;;
63551;SDS011;49698;48.072;7.800;2024-02-04T10:45:32;57.25;;;41.58;;
63551;SDS011;49698;48.072;7.800;2024-02-04T10:48:04;79.53;;;57.80;;
63551;SDS011;49698;48.072;7.800;2024-02-04T10:50:33;51.60;;;44.20;;
63551;SDS011;49698;48.072;7.800;2024-02-04T10:53:04;32.33;;;29.45;;
63551;SDS011;49698;48.072;7.800;2024-02-04T10:55:35;16.50;;;16.00;;
63551;SDS011;49698;48.072;7.800;2024-02-04T10:58:08;12.65;;;12.25;;
63551;SDS011;49698;48.072;7.800;2024-02-04T11:00:38;23.92;;;21.92;;
63551;SDS011;49698;48.072;7.800;2024-02-04T11:03:07;30.67;;;27.88;;
63551;SDS011;49698;48.072;7.800;2024-02-04T11:05:36;59.53;;;50.15;;
63551;SDS011;49698;48.072;7.800;2024-02-04T11:08:05;45.40;;;40.50;;
63551;SDS011;49698;48.072;7.800;2024-02-04T11:10:34;51.83;;;44.70;;
63551;SDS011;49698;48.072;7.800;2024-02-04T11:13:03;90.68;;;64.82;;
63551;SDS011;49698;48.072;7.800;2024-02-04T11:15:35;96.60;;;60.88;;
63551;SDS011;49698;48.072;7.800;2024-02-04T11:18:15;95.70;;;59.65;;
63551;SDS011;49698;48.072;7.800;2024-02-04T11:21:02;97.13;;;60.90;;
63551;SDS011;49698;48.072;7.800;2024-02-04T11:23:42;95.93;;;61.10;;
63551;SDS011;49698;48.072;7.800;2024-02-04T11:26:21;96.43;;;63.17;;
63551;SDS011;49698;48.072;7.800;2024-02-04T11:28:50;92.40;;;57.53;;
63551;SDS011;49698;48.072;7.800;2024-02-04T11:31:19;98.88;;;61.90;;
63551;SDS011;49698;48.072;7.800;2024-02-04T11:33:47;95.28;;;61.33;;
63551;SDS011;49698;48.072;7.800;2024-02-04T11:36:18;92.57;;;60.88;;
63551;SDS011;49698;48.072;7.800;2024-02-04T11:38:51;93.80;;;60.22;;
63551;SDS011;49698;48.072;7.800;2024-02-04T11:41:22;92.43;;;60.83;;
63551;SDS011;49698;48.072;7.800;2024-02-04T11:43:52;53.90;;;48.08;;
63551;SDS011;49698;48.072;7.800;2024-02-04T11:46:27;91.35;;;60.15;;
63551;SDS011;49698;48.072;7.800;2024-02-04T11:48:56;85.82;;;62.38;;
63551;SDS011;49698;48.072;7.800;2024-02-04T11:51:24;85.68;;;69.43;;
63551;SDS011;49698;48.072;7.800;2024-02-04T11:53:52;36.45;;;33.22;;
63551;SDS011;49698;48.072;7.800;2024-02-04T11:56:20;81.45;;;65.47;;
63551;SDS011;49698;48.072;7.800;2024-02-04T11:58:51;62.87;;;46.60;;
63551;SDS011;49698;48.072;7.800;2024-02-04T12:01:21;91.63;;;57.85;;
63551;SDS011;49698;48.072;7.800;2024-02-04T12:03:51;93.80;;;58.67;;
63551;SDS011;49698;48.072;7.800;2024-02-04T12:06:20;91.90;;;56.90;;
63551;SDS011;49698;48.072;7.800;2024-02-04T12:08:48;90.82;;;65.07;;
63551;SDS011;49698;48.072;7.800;2024-02-04T12:11:16;91.45;;;56.28;;
63551;SDS011;49698;48.072;7.800;2024-02-04T12:13:45;84.00;;;56.25;;
63551;SDS011;49698;48.072;7.800;2024-02-04T12:16:13;78.72;;;55.03;;
63551;SDS011;49698;48.072;7.800;2024-02-04T12:18:47;92.50;;;61.58;;
63551;SDS011;49698;48.072;7.800;2024-02-04T12:21:18;92.13;;;57.33;;
63551;SDS011;49698;48.072;7.800;2024-02-04T12:23:47;95.60;;;59.80;;
63551;SDS011;49698;48.072;7.800;2024-02-04T12:28:43;27.77;;;26.77;;
63551;SDS011;49698;48.072;7.800;2024-02-04T12:31:16;16.75;;;16.25;;
63551;SDS011;49698;48.072;7.800;2024-02-04T12:38:53;13.25;;;12.85;;
63551;SDS011;49698;48.072;7.800;2024-02-04T12:41:21;17.33;;;16.73;;
63551;SDS011;49698;48.072;7.800;2024-02-04T12:43:50;17.67;;;17.08;;
63551;SDS011;49698;48.072;7.800;2024-02-04T12:46:19;15.93;;;15.43;;
63551;SDS011;49698;48.072;7.800;2024-02-04T12:48:51;15.60;;;15.10;;
63551;SDS011;49698;48.072;7.800;2024-02-04T12:51:25;14.40;;;13.90;;
63551;SDS011;49698;48.072;7.800;2024-02-04T12:54:03;17.70;;;17.10;;
63551;SDS011;49698;48.072;7.800;2024-02-04T12:56:39;17.48;;;16.90;;
63551;SDS011;49698;48.072;7.800;2024-02-04T12:59:08;13.93;;;13.50;;
63551;SDS011;49698;48.072;7.800;2024-02-04T13:01:37;14.75;;;14.25;;
63551;SDS011;49698;48.072;7.800;2024-02-04T13:04:05;14.38;;;13.88;;
63551;SDS011;49698;48.072;7.800;2024-02-04T13:06:38;14.10;;;13.65;;
63551;SDS011;49698;48.072;7.800;2024-02-04T13:09:07;13.45;;;13.05;;
63551;SDS011;49698;48.072;7.800;2024-02-04T13:11:35;14.95;;;14.45;;
63551;SDS011;49698;48.072;7.800;2024-02-04T13:14:03;15.30;;;14.80;;
63551;SDS011;49698;48.072;7.800;2024-02-04T13:16:31;17.65;;;17.05;;
63551;SDS011;49698;48.072;7.800;2024-02-04T13:19:02;14.98;;;14.48;;
63551;SDS011;49698;48.072;7.800;2024-02-04T13:21:30;12.40;;;12.00;;
63551;SDS011;49698;48.072;7.800;2024-02-04T13:23:59;14.00;;;13.50;;
63551;SDS011;49698;48.072;7.800;2024-02-04T13:26:28;14.43;;;13.93;;
63551;SDS011;49698;48.072;7.800;2024-02-04T13:28:56;15.23;;;14.73;;
63551;SDS011;49698;48.072;7.800;2024-02-04T13:31:24;15.52;;;15.02;;
63551;SDS011;49698;48.072;7.800;2024-02-04T13:33:52;17.73;;;17.13;;
63551;SDS011;49698;48.072;7.800;2024-02-04T13:36:20;12.55;;;12.15;;
63551;SDS011;49698;48.072;7.800;2024-02-04T13:38:49;15.93;;;15.43;;
63551;SDS011;49698;48.072;7.800;2024-02-04T13:41:19;16.05;;;15.55;;
63551;SDS011;49698;48.072;7.800;2024-02-04T13:43:47;20.20;;;19.50;;
63551;SDS011;49698;48.072;7.800;2024-02-04T13:46:15;15.50;;;15.00;;
63551;SDS011;49698;48.072;7.800;2024-02-04T13:48:43;15.77;;;15.27;;
63551;SDS011;49698;48.072;7.800;2024-02-04T13:51:11;17.50;;;16.90;;
63551;SDS011;49698;48.072;7.800;2024-02-04T13:53:39;16.92;;;16.40;;
63551;SDS011;49698;48.072;7.800;2024-02-04T13:56:06;16.83;;;16.30;;
63551;SDS011;49698;48.072;7.800;2024-02-04T13:58:36;15.75;;;15.25;;
63551;SDS011;49698;48.072;7.800;2024-02-04T14:01:04;15.65;;;15.15;;
63551;SDS011;49698;48.072;7.800;2024-02-04T14:03:32;16.20;;;15.70;;
63551;SDS011;49698;48.072;7.800;2024-02-04T14:06:00;14.30;;;13.80;;
63551;SDS011;49698;48.072;7.800;2024-02-04T14:08:30;15.10;;;14.60;;
63551;SDS011;49698;48.072;7.800;2024-02-04T14:10:58;18.27;;;17.67;;
63551;SDS011;49698;48.072;7.800;2024-02-04T14:13:26;16.65;;;16.15;;
63551;SDS011;49698;48.072;7.800;2024-02-04T14:15:56;17.38;;;16.77;;
63551;SDS011;49698;48.072;7.800;2024-02-04T14:18:24;16.00;;;15.50;;
63551;SDS011;49698;48.072;7.800;2024-02-04T14:20:52;19.05;;;18.45;;
63551;SDS011;49698;48.072;7.800;2024-02-04T14:23:20;15.82;;;15.32;;
63551;SDS011;49698;48.072;7.800;2024-02-04T14:25:48;15.35;;;14.85;;
63551;SDS011;49698;48.072;7.800;2024-02-04T14:28:16;16.08;;;15.57;;
63551;SDS011;49698;48.072;7.800;2024-02-04T14:30:44;16.38;;;15.88;;
63551;SDS011;49698;48.072;7.800;2024-02-04T14:33:13;16.63;;;16.13;;
63551;SDS011;49698;48.072;7.800;2024-02-04T14:35:41;15.57;;;15.07;;
63551;SDS011;49698;48.072;7.800;2024-02-04T14:38:09;15.55;;;15.05;;
63551;SDS011;49698;48.072;7.800;2024-02-04T14:40:37;15.52;;;15.02;;
63551;SDS011;49698;48.072;7.800;2024-02-04T14:43:06;15.60;;;15.10;;
63551;SDS011;49698;48.072;7.800;2024-02-04T14:45:34;15.57;;;15.07;;
63551;SDS011;49698;48.072;7.800;2024-02-04T14:48:02;13.98;;;13.55;;
63551;SDS011;49698;48.072;7.800;2024-02-04T14:50:32;16.63;;;16.13;;
63551;SDS011;49698;48.072;7.800;2024-02-04T14:53:00;15.18;;;14.68;;
63551;SDS011;49698;48.072;7.800;2024-02-04T14:55:28;16.23;;;15.73;;
63551;SDS011;49698;48.072;7.800;2024-02-04T14:57:56;14.35;;;13.85;;
63551;SDS011;49698;48.072;7.800;2024-02-04T15:00:24;14.32;;;13.82;;
63551;SDS011;49698;48.072;7.800;2024-02-04T15:02:54;17.33;;;16.75;;
63551;SDS011;49698;48.072;7.800;2024-02-04T15:05:24;15.90;;;15.40;;
63551;SDS011;49698;48.072;7.800;2024-02-04T15:07:54;13.77;;;13.38;;
63551;SDS011;49698;48.072;7.800;2024-02-04T15:10:22;16.75;;;16.23;;
63551;SDS011;49698;48.072;7.800;2024-02-04T15:12:51;15.38;;;14.88;;
63551;SDS011;49698;48.072;7.800;2024-02-04T15:15:20;13.75;;;13.35;;
63551;SDS011;49698;48.072;7.800;2024-02-04T15:17:49;15.38;;;14.88;;
63551;SDS011;49698;48.072;7.800;2024-02-04T15:20:18;16.27;;;15.77;;
63551;SDS011;49698;48.072;7.800;2024-02-04T15:22:49;15.48;;;14.98;;
63551;SDS011;49698;48.072;7.800;2024-02-04T15:25:20;16.92;;;16.40;;
63551;SDS011;49698;48.072;7.800;2024-02-04T15:27:49;15.40;;;14.90;;
63551;SDS011;49698;48.072;7.800;2024-02-04T15:30:20;15.20;;;14.70;;
63551;SDS011;49698;48.072;7.800;2024-02-04T15:32:49;15.32;;;14.82;;
63551;SDS011;49698;48.072;7.800;2024-02-04T15:35:19;17.60;;;17.00;;
63551;SDS011;49698;48.072;7.800;2024-02-04T15:37:48;14.68;;;14.18;;
63551;SDS011;49698;48.072;7.800;2024-02-04T15:40:16;14.88;;;14.38;;
63551;SDS011;49698;48.072;7.800;2024-02-04T15:42:47;15.35;;;14.85;;
63551;SDS011;49698;48.072;7.800;2024-02-04T15:45:15;15.75;;;15.25;;
63551;SDS011;49698;48.072;7.800;2024-02-04T15:47:48;16.63;;;16.13;;
63551;SDS011;49698;48.072;7.800;2024-02-04T15:50:18;15.52;;;15.02;;
63551;SDS011;49698;48.072;7.800;2024-02-04T15:52:47;15.82;;;15.32;;
63551;SDS011;49698;48.072;7.800;2024-02-04T15:55:16;18.02;;;17.42;;
63551;SDS011;49698;48.072;7.800;2024-02-04T15:57:47;17.02;;;16.45;;
63551;SDS011;49698;48.072;7.800;2024-02-04T16:00:17;16.92;;;16.40;;
63551;SDS011;49698;48.072;7.800;2024-02-04T16:02:49;17.65;;;17.05;;
63551;SDS011;49698;48.072;7.800;2024-02-04T16:05:18;18.42;;;17.83;;
63551;SDS011;49698;48.072;7.800;2024-02-04T16:07:48;17.27;;;16.67;;
63551;SDS011;49698;48.072;7.800;2024-02-04T16:10:17;16.50;;;16.00;;
63551;SDS011;49698;48.072;7.800;2024-02-04T16:12:51;17.20;;;16.63;;
63551;SDS011;49698;48.072;7.800;2024-02-04T16:15:22;20.55;;;19.85;;
63551;SDS011;49698;48.072;7.800;2024-02-04T16:17:51;13.50;;;13.07;;
63551;SDS011;49698;48.072;7.800;2024-02-04T16:20:20;15.82;;;15.32;;
63551;SDS011;49698;48.072;7.800;2024-02-04T16:22:48;18.55;;;17.95;;
63551;SDS011;49698;48.072;7.800;2024-02-04T16:25:17;18.48;;;17.88;;
63551;SDS011;49698;48.072;7.800;2024-02-04T16:27:45;21.77;;;21.08;;
63551;SDS011;49698;48.072;7.800;2024-02-04T16:30:15;16.95;;;16.42;;
63551;SDS011;49698;48.072;7.800;2024-02-04T16:32:46;15.23;;;14.73;;
63551;SDS011;49698;48.072;7.800;2024-02-04T16:35:14;17.20;;;16.60;;
63551;SDS011;49698;48.072;7.800;2024-02-04T16:37:42;17.13;;;16.55;;
63551;SDS011;49698;48.072;7.800;2024-02-04T16:40:10;17.77;;;17.17;;
63551;SDS011;49698;48.072;7.800;2024-02-04T16:42:39;13.18;;;12.77;;